Terminal Aerodrome Forecast
Issued by NWS

Home | Current Version | Previous Version | Text Only | Print | Product List | Glossary On
Versions: 1 2 3 4 5 6 7 8 9 10 11 12 13 14 15
835
FTUS44 KTSA 290520
TAFBVO
TAF
KBVO 290520Z 2906/3006 04006KT P6SM SCT030 BKN100
     FM290900 00000KT 4SM BR SCT250
     FM291500 05003KT P6SM SCT040 BKN250 PROB30 2915/2921 5SM -TSRA
      BKN040CB
     FM292100 12004KT P6SM SCT050 BKN250 PROB30 2921/3002 5SM -TSRA
      BKN050CB=

USA.gov is the U.S. government's official web portal to all federal, state and local government web resources and services.